W K Kellogg Airport
KBTL : now visible

Airfield :











YOU CAN JOIN US ON...

 
LOGIN :

Register | Disclaimer

   EN    FR    IT 

 









Legend :    VFR   Marginal VFR   IFR   Intensive IFR   Very Intensive IFR
Visi :
Ceiling :
>= 8 km
>= 3000ft
5 to 8 km
1000 to 3000 ft
1500m to 5 km
500 to 1000 ft
800 to 1500m
200 to 500 ft
< 800m
< 200 ft
Symbols :   Thunderstorms  Fog  Heavy snow  Heavy precipitations  Wind > 20 kt







- Airport Elevation : 952 ft


KBTL - W K Kellogg

CURRENT METAR :
  • 162153Z 04004KT 10SM SCT043 24/17 A3011 RMK AO2 SLP192 T02440172 $

EXPIRED METARs :
  • 162053Z 07006KT 10SM CLR 25/17 A3011 RMK AO2 SLP191 T02500167 58007 $
  • 161953Z 05007KT 020V080 10SM FEW022 SCT028 24/17 A3012 RMK AO2 SLP193 T02440172

TAF KBTL
Valid from the 16 at 18:00 until the 17 at 18:00 UTC


161742Z 1618/1718 03006KT P6SM BKN040
TEMPO 1618/1619 BKN025
FM170200 05003KT P6SM SKC
FM170900 00000KT 3SM BR SCT015
FM171100 09003KT 3/4SM BR OVC006
FM171400 10004KT 4SM BR BKN020
FM171600 10005KT P6SM BKN035
No reported NOTAMs for that airfield.



MET'MAP, your aeronautical weather chart ! - Copyright ORBIFLY December 2007 - Disclaimer

ORBIFLY MET'MAP TEAM :

Programming & Development : Alexandra Zaïnal
Concept & Development : Baudouin d'Aumeries
Co-Development & Prog : Marc-Olivier Méhu
Technical & hardware support : Manuel Goepfert

Contact : metmap@orbifly.com




SOURCES & CREDITS :

   NOAA       Earth
Advisory